Time;durP1;ratioP1;P1;durP2;ratioP2;P2;SDS_P1;SDS_P2;PMS_P1;PMS_P2;Temp;Humidity;BMP_temperature;BMP_pressure;BME280_temperature;BME280_humidity;BME280_pressure;Samples;Min_cycle;Max_cycle;Signal;HPM_P1;HPM_P2
2022/08/17 00:02:21;;;;;;;9.43;6.40;;;;;;;26.40;52.84;99277.94;5116498;28;20034;-71
2022/08/17 00:04:46;;;;;;;10.15;6.30;;;;;;;25.99;54.11;99269.03;5140444;28;20067;-71
2022/08/17 00:07:12;;;;;;;15.18;7.35;;;;;;;25.80;55.24;99262.56;5140744;28;20035;-71
2022/08/17 00:09:37;;;;;;;13.73;7.88;;;;;;;25.87;55.25;99270.41;5122659;28;20224;-71
2022/08/17 00:12:04;;;;;;;12.02;6.97;;;;;;;25.92;55.50;99263.06;5132047;28;20036;-71
2022/08/17 00:14:29;;;;;;;11.05;7.13;;;;;;;25.84;54.91;99244.66;5123030;28;20039;-71
2022/08/17 00:16:54;;;;;;;11.20;8.02;;;;;;;25.87;54.82;99249.53;5123201;28;20283;-72
2022/08/17 00:19:23;;;;;;;14.02;7.75;;;;;;;25.90;54.83;99264.44;5123364;28;20205;-71
2022/08/17 00:21:51;;;;;;;11.30;6.35;;;;;;;25.38;56.88;99262.81;5123722;28;20037;-72
2022/08/17 00:24:17;;;;;;;11.57;6.60;;;;;;;25.23;57.40;99260.91;5122711;28;20034;-71
2022/08/17 00:26:43;;;;;;;10.20;7.05;;;;;;;25.23;57.46;99241.13;5121034;28;20035;-72
2022/08/17 00:29:09;;;;;;;14.10;6.43;;;;;;;25.54;56.62;99260.91;5124553;28;20055;-72
2022/08/17 00:31:35;;;;;;;12.52;6.60;;;;;;;25.41;56.54;99254.16;5125711;28;20348;-71
2022/08/17 00:34:02;;;;;;;13.27;6.63;;;;;;;25.30;56.73;99245.19;5123444;27;20042;-71
2022/08/17 00:36:28;;;;;;;8.77;6.38;;;;;;;25.43;56.46;99255.50;5126780;27;20051;-72
2022/08/17 00:38:53;;;;;;;9.98;7.13;;;;;;;25.65;55.74;99257.13;5125536;27;20106;-71
2022/08/17 00:41:22;;;;;;;12.73;6.30;;;;;;;25.87;55.59;99259.56;5129449;27;20039;-71
2022/08/17 00:43:50;;;;;;;10.73;5.75;;;;;;;26.01;55.40;99275.03;5127556;27;20031;-71
2022/08/17 00:46:23;;;;;;;9.00;6.10;;;;;;;25.90;55.63;99269.88;5126997;27;20023;-71
2022/08/17 00:48:49;;;;;;;12.52;6.35;;;;;;;25.65;55.71;99262.53;5126414;27;20031;-72
2022/08/17 00:51:22;;;;;;;13.70;6.60;;;;;;;25.44;57.85;99270.69;5126381;27;20024;-72
2022/08/17 00:53:55;;;;;;;16.85;7.28;;;;;;;25.16;59.30;99259.53;5125270;27;20027;-71
2022/08/17 00:56:27;;;;;;;9.00;6.83;;;;;;;25.07;59.87;99273.63;5125916;27;20028;-71
2022/08/17 00:58:54;;;;;;;13.35;8.07;;;;;;;24.98;60.48;99271.72;5124912;27;20331;-72
2022/08/17 01:01:21;;;;;;;13.98;7.50;;;;;;;25.02;61.19;99279.03;5126912;27;20039;-72
2022/08/17 01:03:47;;;;;;;13.18;7.28;;;;;;;25.10;61.27;99283.09;5126485;27;20050;-71
2022/08/17 01:06:13;;;;;;;11.85;7.22;;;;;;;25.06;60.54;99282.00;5126693;27;20298;-72
2022/08/17 01:08:39;;;;;;;12.18;7.43;;;;;;;24.98;60.64;99279.81;5124829;27;20039;-71
2022/08/17 01:11:06;;;;;;;10.68;7.50;;;;;;;24.74;61.42;99282.94;5123172;28;20090;-71
2022/08/17 01:13:39;;;;;;;12.48;6.78;;;;;;;24.62;61.75;99284.25;5125043;27;20042;-72
2022/08/17 01:16:10;;;;;;;13.30;7.68;;;;;;;24.40;62.03;99273.63;5106426;27;20126;-71
2022/08/17 01:18:36;;;;;;;12.18;6.85;;;;;;;24.31;61.82;99276.00;5106450;27;20320;-71
2022/08/17 01:21:09;;;;;;;11.65;7.78;;;;;;;24.41;61.88;99289.59;5126145;27;20051;-72
2022/08/17 01:23:35;;;;;;;11.32;7.10;;;;;;;24.40;62.03;99276.31;5126269;27;20046;-72
2022/08/17 01:26:04;;;;;;;12.07;7.50;;;;;;;24.46;61.78;99275.25;5106810;27;20027;-72
2022/08/17 01:28:33;;;;;;;12.45;6.85;;;;;;;24.60;61.06;99275.59;5126354;27;20100;-71
2022/08/17 01:31:02;;;;;;;9.77;6.25;;;;;;;24.71;60.78;99275.38;5126128;27;20092;-72
2022/08/17 01:33:28;;;;;;;11.20;7.10;;;;;;;24.60;60.49;99264.75;5125364;27;20036;-71
2022/08/17 01:35:54;;;;;;;12.30;6.75;;;;;;;24.69;60.75;99268.59;5125979;27;20031;-72
2022/08/17 01:38:19;;;;;;;11.63;7.45;;;;;;;24.66;60.55;99267.22;5124990;27;20030;-72
2022/08/17 01:41:00;;;;;;;14.93;7.22;;;;;;;24.69;60.68;99265.88;5124033;27;20039;-72
2022/08/17 01:43:31;;;;;;;11.63;7.60;;;;;;;24.69;60.76;99258.56;5125576;27;20027;-72
2022/08/17 01:45:58;;;;;;;12.63;6.88;;;;;;;24.73;60.85;99251.53;5106689;27;20023;-72
2022/08/17 01:48:29;;;;;;;12.98;7.30;;;;;;;24.82;61.29;99259.97;5106090;28;20331;-72
2022/08/17 01:50:55;;;;;;;11.43;7.22;;;;;;;24.72;60.93;99252.63;5122350;28;20039;-71
2022/08/17 01:53:26;;;;;;;9.57;6.93;;;;;;;24.71;61.77;99247.47;5105092;27;20077;-72
2022/08/17 01:56:00;;;;;;;11.55;8.38;;;;;;;24.68;62.10;99243.41;5128283;27;20103;-72
2022/08/17 01:58:25;;;;;;;11.80;7.77;;;;;;;24.56;62.70;99242.81;5136424;27;20087;-72
2022/08/17 02:00:52;;;;;;;10.73;7.20;;;;;;;24.51;62.96;99231.97;5142768;27;20023;-72
2022/08/17 02:03:19;;;;;;;10.18;7.07;;;;;;;24.56;62.53;99229.28;5131634;27;20034;-72
2022/08/17 02:05:47;;;;;;;10.93;6.97;;;;;;;24.56;62.55;99236.59;5125379;27;20046;-72
2022/08/17 02:08:14;;;;;;;15.63;8.68;;;;;;;24.50;62.43;99228.47;5125139;27;20056;-72
2022/08/17 02:10:40;;;;;;;9.82;7.10;;;;;;;24.41;64.39;99224.63;5124695;27;20054;-72
2022/08/17 02:13:05;;;;;;;10.60;7.50;;;;;;;24.12;65.93;99248.56;5105327;28;20210;-72
2022/08/17 02:15:33;;;;;;;12.02;7.53;;;;;;;23.83;65.81;99244.56;5106810;27;20020;-72
2022/08/17 02:17:59;;;;;;;14.68;7.65;;;;;;;23.44;65.46;99195.34;5124660;27;20374;-71
2022/08/17 02:20:25;;;;;;;11.57;7.30;;;;;;;23.78;65.59;99249.94;5107234;27;20019;-72
2022/08/17 02:22:50;;;;;;;9.55;7.15;;;;;;;24.02;65.55;99245.78;5125382;27;20217;-72
2022/08/17 02:25:19;;;;;;;14.65;7.47;;;;;;;23.91;65.32;99245.97;5105962;28;20099;-72
2022/08/17 02:27:44;;;;;;;12.30;7.18;;;;;;;24.02;65.48;99245.78;5127118;27;20031;-72
2022/08/17 02:30:12;;;;;;;13.25;6.60;;;;;;;24.09;64.09;99256.38;5108100;27;20024;-71
2022/08/17 02:32:38;;;;;;;13.48;7.93;;;;;;;24.13;64.34;99246.66;5106200;28;20072;-72
2022/08/17 02:35:04;;;;;;;9.77;7.15;;;;;;;24.23;63.45;99248.59;5122132;28;20028;-72
2022/08/17 02:37:30;;;;;;;9.88;6.50;;;;;;;24.20;63.39;99261.59;5122318;27;20098;-72
2022/08/17 02:39:57;;;;;;;11.85;7.35;;;;;;;23.77;65.70;99257.22;5123899;27;20034;-71
2022/08/17 02:42:32;;;;;;;11.50;7.15;;;;;;;23.10;67.68;99252.31;5125434;27;20248;-72
2022/08/17 02:44:59;;;;;;;11.13;8.00;;;;;;;22.80;69.18;99260.09;5106835;27;20023;-72
2022/08/17 02:47:25;;;;;;;18.52;7.50;;;;;;;22.61;70.62;99256.88;5124531;27;20016;-72
2022/08/17 02:49:52;;;;;;;13.95;7.90;;;;;;;22.63;70.91;99268.22;5123361;27;20154;-72
2022/08/17 02:52:17;;;;;;;10.15;7.63;;;;;;;22.57;70.69;99256.56;5121714;28;20027;-72
2022/08/17 02:54:43;;;;;;;13.93;8.57;;;;;;;22.49;71.13;99272.38;5123824;27;20035;-71
2022/08/17 02:57:09;;;;;;;11.88;8.45;;;;;;;22.60;70.60;99268.72;5122768;27;20182;-73
2022/08/17 02:59:35;;;;;;;11.43;7.65;;;;;;;22.81;69.65;99265.22;5125442;27;20084;-74
2022/08/17 03:02:09;;;;;;;10.27;7.35;;;;;;;22.95;68.98;99270.25;5124186;27;20086;-71
2022/08/17 03:04:35;;;;;;;11.95;7.38;;;;;;;23.14;68.37;99274.25;5123793;27;20023;-71
2022/08/17 03:07:03;;;;;;;11.68;7.38;;;;;;;23.08;68.10;99259.06;5125075;27;20050;-72
2022/08/17 03:09:28;;;;;;;14.63;7.82;;;;;;;23.22;67.56;99269.19;5104834;27;20038;-72
2022/08/17 03:11:54;;;;;;;12.88;7.18;;;;;;;23.44;67.05;99281.81;5124388;27;20043;-71
2022/08/17 03:14:20;;;;;;;17.27;8.13;;;;;;;23.53;66.55;99272.16;5124175;27;20027;-72
2022/08/17 03:16:46;;;;;;;20.20;8.18;;;;;;;23.59;66.13;99278.44;5104581;28;20031;-72
2022/08/17 03:19:11;;;;;;;11.25;7.53;;;;;;;23.43;66.34;99269.38;5123860;27;20353;-72
2022/08/17 03:21:37;;;;;;;11.73;7.57;;;;;;;23.37;66.64;99282.03;5124235;28;20073;-70
2022/08/17 03:24:02;;;;;;;13.75;7.15;;;;;;;23.19;67.58;99280.50;5123832;28;20031;-71
2022/08/17 03:26:28;;;;;;;10.82;7.97;;;;;;;23.28;67.16;99285.44;5124419;28;20045;-72
2022/08/17 03:28:53;;;;;;;18.50;8.82;;;;;;;23.35;67.10;99283.34;5123507;28;20305;-71
2022/08/17 03:31:20;;;;;;;10.93;7.65;;;;;;;23.37;67.21;99282.03;5124505;28;20043;-71
2022/08/17 03:33:46;;;;;;;12.05;7.78;;;;;;;23.38;66.47;99278.25;5103996;28;20028;-71
2022/08/17 03:36:11;;;;;;;18.60;8.15;;;;;;;23.37;66.22;99282.03;5120929;28;20033;-71
2022/08/17 03:38:37;;;;;;;14.85;8.18;;;;;;;23.46;65.95;99280.47;5121715;28;20032;-71
2022/08/17 03:41:05;;;;;;;16.58;11.48;;;;;;;23.54;65.24;99281.91;5123542;28;20031;-72
2022/08/17 03:43:31;;;;;;;26.00;9.63;;;;;;;23.58;65.08;99283.03;5122108;28;20054;-72
2022/08/17 03:56:55;;;;;;;14.32;8.32;;;;;;;23.78;65.08;99298.59;5123551;28;20098;-72
2022/08/17 03:59:22;;;;;;;12.63;7.43;;;;;;;23.74;65.32;99300.19;5123731;28;20032;-72
2022/08/17 04:01:51;;;;;;;14.02;8.10;;;;;;;23.63;65.61;99295.78;5105790;28;20038;-72
2022/08/17 04:04:18;;;;;;;14.27;7.25;;;;;;;23.71;65.29;99311.53;5121191;28;20063;-72
2022/08/17 04:06:44;;;;;;;12.90;7.40;;;;;;;23.74;65.08;99319.13;5120484;28;20073;-71
2022/08/17 04:09:10;;;;;;;19.83;7.70;;;;;;;23.28;65.63;99301.66;5124285;27;20031;-72
2022/08/17 04:11:36;;;;;;;16.60;8.43;;;;;;;23.64;64.95;99319.03;5127715;27;20331;-72
2022/08/17 04:14:03;;;;;;;20.15;7.65;;;;;;;23.47;65.44;99325.34;5128395;27;20039;-72
2022/08/17 04:16:30;;;;;;;11.88;7.93;;;;;;;23.63;65.08;99318.22;5111188;27;20030;-72
2022/08/17 04:18:56;;;;;;;16.23;8.27;;;;;;;23.78;64.57;99314.81;5128944;27;20224;-72
2022/08/17 04:21:22;;;;;;;13.05;8.05;;;;;;;23.85;65.11;99318.94;5127161;27;20086;-72
2022/08/17 04:23:48;;;;;;;17.52;8.68;;;;;;;24.04;64.74;99324.78;5127468;27;20134;-71
2022/08/17 04:26:14;;;;;;;18.75;8.45;;;;;;;24.15;63.86;99321.06;5126777;27;20240;-72
2022/08/17 04:28:41;;;;;;;16.35;8.30;;;;;;;24.16;63.34;99324.59;5127961;27;20046;-72
2022/08/17 04:31:11;;;;;;;17.92;8.52;;;;;;;24.02;63.45;99321.53;5127004;27;20020;-72
2022/08/17 04:33:38;;;;;;;19.95;7.85;;;;;;;24.12;63.12;99328.88;5126119;27;20325;-72
2022/08/17 04:36:06;;;;;;;11.75;8.05;;;;;;;24.35;63.07;99323.09;5127228;27;20028;-72
2022/08/17 04:38:35;;;;;;;19.80;7.57;;;;;;;24.26;63.59;99324.66;5107569;27;20028;-72
2022/08/17 04:43:48;;;;;;;15.10;6.43;;;;;;;24.42;63.23;99323.69;5126723;27;20069;-71
2022/08/17 04:46:19;;;;;;;19.58;7.25;;;;;;;24.66;62.49;99326.78;5127018;27;20032;-72
2022/08/17 04:48:47;;;;;;;16.70;7.70;;;;;;;24.61;62.22;99323.25;5128736;27;20055;-72
2022/08/17 04:51:16;;;;;;;15.88;7.55;;;;;;;24.65;61.89;99314.31;5128171;27;20035;-72
2022/08/17 04:53:44;;;;;;;19.95;7.35;;;;;;;24.52;61.73;99301.28;5127791;27;20023;-72
2022/08/17 04:56:11;;;;;;;12.82;7.05;;;;;;;24.82;61.42;99330.38;5109371;27;20031;-72
2022/08/17 04:58:37;;;;;;;18.65;8.02;;;;;;;24.80;61.33;99325.22;5126445;27;20232;-72
2022/08/17 05:01:04;;;;;;;14.13;7.63;;;;;;;24.95;61.41;99326.34;5126511;27;20099;-72
2022/08/17 05:03:30;;;;;;;18.23;11.00;;;;;;;25.11;60.83;99328.06;5126970;27;20048;-72
2022/08/17 05:05:56;;;;;;;11.80;7.22;;;;;;;25.30;60.54;99326.50;5126195;27;20348;-72
2022/08/17 05:08:22;;;;;;;13.63;6.45;;;;;;;25.41;58.66;99327.31;5120515;27;20039;-72
2022/08/17 05:10:48;;;;;;;14.13;6.53;;;;;;;25.66;57.82;99343.63;5126915;27;20309;-71
2022/08/17 05:13:17;;;;;;;9.38;5.93;;;;;;;25.76;57.55;99331.97;5125525;27;20241;-72
2022/08/17 05:15:44;;;;;;;11.82;5.68;;;;;;;25.91;56.65;99333.88;5107036;27;20039;-72
2022/08/17 05:18:10;;;;;;;15.00;5.97;;;;;;;25.96;56.60;99323.03;5126212;27;20309;-72
2022/08/17 05:20:37;;;;;;;12.23;5.60;;;;;;;26.27;55.06;99335.47;5125327;27;20377;-72
2022/08/17 05:23:06;;;;;;;16.85;6.28;;;;;;;26.47;53.83;99331.13;5127165;27;20030;-72
2022/08/17 05:25:45;;;;;;;13.18;6.03;;;;;;;26.74;52.81;99334.28;5125655;27;20369;-72
2022/08/17 05:28:10;;;;;;;12.25;5.28;;;;;;;26.95;52.00;99343.16;5123913;27;20019;-72
2022/08/17 05:30:37;;;;;;;10.75;5.63;;;;;;;27.14;50.21;99325.19;5126383;27;20098;-72
2022/08/17 05:33:09;;;;;;;13.95;5.70;;;;;;;27.40;50.03;99341.34;5126196;27;20413;-72
2022/08/17 05:35:38;;;;;;;14.68;5.20;;;;;;;27.51;50.07;99340.97;5125379;27;20039;-72
2022/08/17 05:38:04;;;;;;;14.82;5.68;;;;;;;27.57;49.07;99315.38;5125686;27;20023;-73
2022/08/17 05:40:29;;;;;;;14.35;5.72;;;;;;;27.69;48.80;99350.41;5126317;27;20043;-72
2022/08/17 05:43:07;;;;;;;15.88;5.30;;;;;;;27.77;47.81;99355.22;5125433;27;20086;-72
2022/08/17 05:45:54;;;;;;;14.43;5.75;;;;;;;27.77;48.08;99349.78;5129087;27;20265;-72
2022/08/17 05:48:20;;;;;;;10.75;5.22;;;;;;;27.91;48.10;99342.59;5119614;27;20039;-72
2022/08/17 05:51:09;;;;;;;8.90;5.50;;;;;;;28.14;47.25;99351.13;5126076;27;20031;-72
2022/08/17 05:53:59;;;;;;;9.65;4.90;;;;;;;28.31;46.06;99351.53;5138101;27;20095;-72
2022/08/17 05:56:35;;;;;;;14.20;5.05;;;;;;;28.34;45.60;99339.25;5125959;27;20202;-72
2022/08/17 05:59:14;;;;;;;13.10;5.00;;;;;;;28.39;45.36;99328.31;5137819;27;20039;-72
2022/08/17 06:01:55;;;;;;;9.05;4.72;;;;;;;28.47;45.38;99338.56;5143882;27;20063;-72
2022/08/17 06:04:29;;;;;;;12.05;5.35;;;;;;;28.64;44.73;99344.34;5144461;27;20042;-71
2022/08/17 06:07:02;;;;;;;7.88;4.40;;;;;;;28.80;44.29;99343.06;5144053;27;20031;-72
2022/08/17 06:09:38;;;;;;;12.30;4.38;;;;;;;28.88;43.79;99356.06;5125889;27;20038;-71
2022/08/17 06:12:26;;;;;;;10.13;4.70;;;;;;;28.86;44.01;99360.19;5125703;27;20027;-72
2022/08/17 06:15:25;;;;;;;10.30;4.78;;;;;;;29.05;43.56;99341.16;5140055;27;20039;-72
2022/08/17 06:17:58;;;;;;;7.82;4.85;;;;;;;29.35;43.06;99351.66;5144164;27;20045;-70
2022/08/17 06:20:26;;;;;;;12.80;4.90;;;;;;;29.37;42.93;99354.09;5137374;27;20039;-72
2022/08/17 06:23:03;;;;;;;8.50;4.68;;;;;;;29.36;42.55;99333.38;5125441;27;20074;-72
2022/08/17 06:25:41;;;;;;;13.85;5.05;;;;;;;29.37;42.10;99343.19;5142694;27;20031;-71
2022/08/17 06:29:07;;;;;;;8.23;4.63;;;;;;;29.45;43.07;99356.19;5134590;27;20181;-71
2022/08/17 06:31:37;;;;;;;8.80;4.70;;;;;;;29.74;42.02;99350.53;5140711;27;20034;-72
2022/08/17 06:34:07;;;;;;;11.15;5.72;;;;;;;30.00;41.52;99350.94;5142407;27;20027;-72
2022/08/17 06:37:09;;;;;;;8.82;5.25;;;;;;;30.04;40.82;99351.97;5116804;27;20027;-72
2022/08/17 06:39:47;;;;;;;12.75;5.53;;;;;;;30.14;41.18;99363.53;5123166;27;20054;-72
2022/08/17 06:42:43;;;;;;;5.55;4.10;;;;;;;30.33;40.56;99351.75;5108574;27;20102;-72
2022/08/17 06:45:15;;;;;;;13.13;5.13;;;;;;;30.21;40.01;99345.97;5123161;27;20040;-72
2022/08/17 06:48:23;;;;;;;6.10;4.38;;;;;;;30.42;40.17;99350.75;5122877;27;20317;-72
2022/08/17 06:51:04;;;;;;;9.15;4.65;;;;;;;30.67;39.61;99346.75;5105545;28;20035;-71
2022/08/17 06:53:51;;;;;;;9.27;5.03;;;;;;;30.81;39.07;99346.75;5109157;27;20036;-72
2022/08/17 06:56:33;;;;;;;10.73;4.93;;;;;;;30.97;38.59;99336.28;5095931;27;20114;-71
2022/08/17 06:59:02;;;;;;;7.13;4.65;;;;;;;31.01;38.87;99335.38;5125037;27;20047;-72
2022/08/17 07:01:34;;;;;;;7.10;4.82;;;;;;;31.26;38.38;99335.97;5124970;27;20045;-72
2022/08/17 07:04:22;;;;;;;12.85;5.20;;;;;;;31.42;38.03;99332.59;5127016;27;20042;-72
2022/08/17 07:09:58;;;;;;;11.07;5.30;;;;;;;31.56;38.18;99327.06;5126123;27;20102;-72
2022/08/17 07:12:44;;;;;;;10.40;4.60;;;;;;;31.78;37.56;99330.94;5106576;28;20373;-73
2022/08/17 07:15:25;;;;;;;11.15;5.10;;;;;;;31.90;36.75;99325.69;5080540;27;20477;-72
2022/08/17 07:17:55;;;;;;;8.27;4.47;;;;;;;32.07;36.37;99323.88;5122776;28;20039;-72
2022/08/17 07:20:58;;;;;;;8.90;4.65;;;;;;;32.18;36.56;99332.63;5052027;28;20032;-72
2022/08/17 07:23:50;;;;;;;11.27;4.35;;;;;;;32.62;34.85;99326.25;5084846;28;20040;-72
2022/08/17 07:26:15;;;;;;;10.57;4.47;;;;;;;32.61;35.65;99332.06;5085540;28;20056;-72
2022/08/17 07:28:43;;;;;;;9.95;4.57;;;;;;;32.52;34.93;99307.38;5088085;28;20080;-72
2022/08/17 07:31:34;;;;;;;8.52;5.43;;;;;;;32.68;34.97;99330.47;5084339;28;20032;-72
2022/08/17 07:34:13;;;;;;;7.88;4.57;;;;;;;32.87;35.07;99329.41;5011906;28;20158;-72
2022/08/17 07:36:40;;;;;;;9.73;4.40;;;;;;;32.90;35.29;99313.13;5086325;28;20075;-72
2022/08/17 07:39:26;;;;;;;14.50;4.93;;;;;;;33.03;34.67;99327.81;5084756;28;20075;-72
2022/08/17 07:42:01;;;;;;;5.95;4.32;;;;;;;33.08;34.47;99318.63;5085653;28;20169;-72
2022/08/17 07:44:27;;;;;;;9.65;4.30;;;;;;;33.17;34.74;99319.44;5086580;28;20130;-72
2022/08/17 07:49:40;;;;;;;11.05;4.45;;;;;;;33.37;33.24;99324.38;5089420;28;20043;-72
2022/08/17 07:52:26;;;;;;;6.60;4.15;;;;;;;33.61;33.55;99326.59;5106052;28;20325;-72
2022/08/17 07:54:52;;;;;;;9.50;4.68;;;;;;;33.59;32.56;99317.88;5120319;27;20078;-72
2022/08/17 07:57:18;;;;;;;8.07;4.28;;;;;;;33.70;32.64;99318.38;5108568;27;20043;-72
2022/08/17 08:00:15;;;;;;;10.23;4.20;;;;;;;33.87;32.41;99324.66;5130436;27;20039;-72
2022/08/17 08:02:44;;;;;;;9.60;4.60;;;;;;;34.11;32.10;99323.31;5111144;27;20240;-72
2022/08/17 08:05:24;;;;;;;8.05;4.50;;;;;;;34.13;31.69;99323.78;5107689;27;20019;-72
2022/08/17 08:07:53;;;;;;;6.65;4.45;;;;;;;34.08;31.55;99319.28;5111039;27;20031;-72
2022/08/17 08:10:42;;;;;;;9.30;4.32;;;;;;;34.26;32.05;99309.84;5128736;27;20031;-73
2022/08/17 08:13:19;;;;;;;9.23;4.93;;;;;;;34.20;31.14;99311.16;5129108;27;20039;-71
2022/08/17 08:16:11;;;;;;;8.55;5.20;;;;;;;33.94;32.02;99319.47;5125176;27;20024;-72
2022/08/17 08:18:42;;;;;;;9.55;4.55;;;;;;;33.58;32.00;99311.59;5116188;27;20111;-71
2022/08/17 08:21:17;;;;;;;10.35;5.60;;;;;;;33.60;31.55;99311.28;5126841;27;20306;-72
2022/08/17 08:24:14;;;;;;;12.55;4.70;;;;;;;33.95;32.02;99310.09;5125300;27;20039;-73
2022/08/17 08:27:16;;;;;;;9.75;4.07;;;;;;;34.13;29.29;99293.56;5130177;27;20442;-73
2022/08/17 08:29:45;;;;;;;20.33;4.43;;;;;;;34.20;30.56;99299.34;5108661;27;20040;-72
2022/08/17 08:32:19;;;;;;;9.48;5.38;;;;;;;34.10;30.26;99295.03;5126822;27;20035;-72
2022/08/17 08:35:08;;;;;;;11.85;5.65;;;;;;;34.33;30.49;99297.53;5130499;27;20107;-73
2022/08/17 08:38:08;;;;;;;10.30;5.47;;;;;;;34.47;29.58;99292.66;5132600;27;20277;-72
2022/08/17 08:40:50;;;;;;;8.75;5.03;;;;;;;34.65;29.25;99287.88;5041568;28;20047;-72
2022/08/17 08:43:53;;;;;;;8.35;6.15;;;;;;;34.83;29.40;99286.66;5112258;27;20031;-72
2022/08/17 08:46:45;;;;;;;9.70;4.88;;;;;;;34.81;29.00;99275.16;5127020;27;20031;-72
2022/08/17 08:49:20;;;;;;;9.20;4.97;;;;;;;34.76;28.29;99281.66;5128599;27;20047;-72
2022/08/17 08:51:54;;;;;;;8.93;5.80;;;;;;;34.70;28.70;99280.22;5110923;27;20019;-72
2022/08/17 08:54:33;;;;;;;7.20;4.22;;;;;;;34.77;27.56;99288.75;5129264;27;20098;-72
2022/08/17 08:57:35;;;;;;;7.18;3.92;;;;;;;34.74;28.09;99285.88;5123366;27;20020;-72
2022/08/17 09:00:19;;;;;;;5.30;3.67;;;;;;;34.91;27.72;99285.78;5130147;27;20207;-72
2022/08/17 09:02:45;;;;;;;9.88;4.00;;;;;;;34.99;28.63;99281.38;5126872;27;20246;-72
2022/08/17 09:05:19;;;;;;;9.38;3.47;;;;;;;34.92;27.08;99283.84;5128201;27;20031;-72
2022/08/17 09:08:24;;;;;;;4.22;3.25;;;;;;;35.01;25.39;99268.88;5126345;27;20324;-73
2022/08/17 09:11:10;;;;;;;8.35;4.72;;;;;;;35.01;26.09;99284.59;5125006;27;20122;-72
2022/08/17 09:13:41;;;;;;;6.30;3.78;;;;;;;34.95;27.81;99278.47;5126546;27;20221;-72
2022/08/17 09:16:21;;;;;;;8.10;3.63;;;;;;;34.96;26.96;99277.34;5115453;27;20023;-72
2022/08/17 09:18:52;;;;;;;5.90;3.80;;;;;;;34.87;27.15;99271.09;5127079;27;20024;-72
2022/08/17 09:21:40;;;;;;;7.00;3.72;;;;;;;34.77;27.00;99269.50;5128332;27;20035;-72
2022/08/17 09:24:38;;;;;;;8.25;4.05;;;;;;;34.68;26.05;99265.22;5124213;27;20727;-72
2022/08/17 09:27:13;;;;;;;10.63;4.13;;;;;;;34.77;26.98;99258.50;5125450;27;20031;-72
2022/08/17 09:29:46;;;;;;;5.00;4.28;;;;;;;34.90;27.10;99264.91;5129058;27;20022;-72
2022/08/17 09:32:23;;;;;;;7.63;3.60;;;;;;;34.78;25.47;99259.31;5124235;27;20060;-72
2022/08/17 09:34:53;;;;;;;4.90;3.53;;;;;;;34.79;25.86;99258.19;5109356;27;20039;-72
2022/08/17 09:37:26;;;;;;;6.03;3.33;;;;;;;34.76;26.16;99265.16;5123461;27;20035;-72
2022/08/17 09:40:13;;;;;;;6.88;3.33;;;;;;;34.77;26.64;99266.75;5126530;27;20051;-72
2022/08/17 09:43:02;;;;;;;11.15;3.58;;;;;;;34.68;26.16;99246.75;5110466;27;20098;-72
2022/08/17 09:45:44;;;;;;;7.07;2.88;;;;;;;34.90;25.55;99256.66;5067151;27;20089;-72
2022/08/17 09:48:28;;;;;;;6.35;3.63;;;;;;;34.81;26.38;99262.19;5124954;27;20330;-72
2022/08/17 09:51:17;;;;;;;;;;;;;;;34.61;25.87;99259.44;5107461;27;20177;-71
2022/08/17 09:53:42;;;;;;;8.98;3.53;;;;;;;34.40;26.25;99262.94;5125346;27;19960;-71
2022/08/17 09:56:08;;;;;;;7.25;3.50;;;;;;;34.24;26.18;99256.34;5124958;27;20018;-72
2022/08/17 09:58:55;;;;;;;7.22;3.50;;;;;;;34.14;25.82;99249.28;5123422;27;20027;-72
2022/08/17 10:01:35;;;;;;;7.15;2.90;;;;;;;34.39;26.86;99257.78;5125609;27;20043;-72
2022/08/17 10:04:00;;;;;;;10.75;4.05;;;;;;;34.33;26.85;99243.38;5125308;27;20196;-72
2022/08/17 10:06:42;;;;;;;4.72;3.83;;;;;;;34.39;26.98;99236.59;5108771;27;20103;-72
2022/08/17 10:09:33;;;;;;;11.43;3.90;;;;;;;34.24;26.95;99248.09;5124569;27;20094;-72
2022/08/17 10:12:19;;;;;;;4.47;2.88;;;;;;;34.37;26.60;99224.31;5103436;27;20054;-72
2022/08/17 10:15:09;;;;;;;4.63;2.90;;;;;;;34.46;26.94;99225.06;5107554;27;20102;-72
2022/08/17 10:18:02;;;;;;;7.10;3.13;;;;;;;34.56;26.32;99241.19;5129031;27;20031;-72
2022/08/17 10:26:11;;;;;;;6.40;2.88;;;;;;;34.49;26.33;99235.41;5137304;27;20090;-72
2022/08/17 10:26:34;;;;;;;6.43;3.28;;;;;;;34.49;25.87;99229.91;5133182;27;20034;-72
2022/08/17 10:29:10;;;;;;;5.18;3.80;;;;;;;34.31;25.88;99237.38;5139103;27;20058;-72
2022/08/17 10:31:47;;;;;;;5.82;3.30;;;;;;;34.48;25.63;99229.09;5137181;27;20034;-71
2022/08/17 10:34:46;;;;;;;7.70;4.57;;;;;;;34.33;25.77;99217.84;5123022;27;20031;-71
2022/08/17 10:37:49;;;;;;;8.65;3.70;;;;;;;34.34;25.66;99225.78;5142469;27;20239;-72
2022/08/17 10:40:37;;;;;;;6.23;3.40;;;;;;;34.50;24.92;99224.06;5131781;27;20039;-72
2022/08/17 10:43:37;;;;;;;8.95;3.33;;;;;;;34.65;25.42;99222.69;5140167;27;20068;-72
2022/08/17 10:46:16;;;;;;;5.60;2.92;;;;;;;34.67;24.20;99214.09;5137607;27;20077;-72
2022/08/17 10:48:42;;;;;;;6.82;3.25;;;;;;;34.65;25.83;99205.38;5123881;27;20320;-72
2022/08/17 10:51:11;;;;;;;5.18;3.05;;;;;;;34.63;25.97;99202.97;5121218;27;20239;-72
2022/08/17 10:53:39;;;;;;;5.05;3.28;;;;;;;34.67;25.41;99203.91;5142437;27;20023;-72
2022/08/17 10:56:11;;;;;;;7.35;3.90;;;;;;;34.74;26.85;99203.38;5123522;27;20027;-72
2022/08/17 10:58:54;;;;;;;8.77;3.75;;;;;;;34.63;26.07;99197.47;5142255;27;20079;-72
2022/08/17 11:01:36;;;;;;;6.30;3.65;;;;;;;34.79;25.22;99195.72;5118353;27;20047;-72
2022/08/17 11:04:17;;;;;;;6.28;3.55;;;;;;;34.69;26.42;99195.31;5113407;28;20238;-72
2022/08/17 11:07:00;;;;;;;9.32;3.90;;;;;;;34.69;25.72;99198.06;5123687;27;20272;-72
2022/08/17 11:09:57;;;;;;;4.40;2.83;;;;;;;34.75;25.27;99192.03;5142252;27;20058;-72
2022/08/17 11:12:53;;;;;;;8.45;3.55;;;;;;;34.69;25.67;99190.63;5131654;27;20186;-72
2022/08/17 11:15:41;;;;;;;6.05;3.30;;;;;;;34.78;26.63;99183.13;5122141;27;20902;-72
2022/08/17 11:18:18;;;;;;;6.35;4.07;;;;;;;34.61;27.29;99187.94;5081908;27;20106;-71
2022/08/17 11:21:02;;;;;;;7.10;3.28;;;;;;;34.51;26.50;99183.66;5106526;28;20047;-72
2022/08/17 11:23:28;;;;;;;;;;;;;;;34.55;27.02;99177.16;5106468;28;20035;-72
2022/08/17 11:25:56;;;;;;;6.32;3.38;;;;;;;34.79;26.08;99168.22;5124357;28;19919;-72
2022/08/17 11:28:33;;;;;;;7.18;3.28;;;;;;;34.82;26.07;99166.78;5105835;28;20036;-72
2022/08/17 11:31:25;;;;;;;9.93;3.53;;;;;;;34.88;25.80;99159.94;5122555;28;20043;-71
2022/08/17 11:34:21;;;;;;;3.55;2.78;;;;;;;35.02;25.25;99160.44;5123030;28;20063;-71
2022/08/17 11:37:03;;;;;;;7.18;3.17;;;;;;;34.80;25.46;99147.03;5123947;28;20031;-72
2022/08/17 11:39:29;;;;;;;12.00;4.43;;;;;;;34.77;25.92;99164.19;5123278;28;20060;-72
2022/08/17 11:42:45;;;;;;;5.85;3.60;;;;;;;34.85;25.00;99158.66;5105885;28;20035;-72
2022/08/17 11:45:28;;;;;;;6.78;3.17;;;;;;;34.84;25.01;99142.50;5084677;28;20027;-72
2022/08/17 11:53:49;;;;;;;4.57;3.08;;;;;;;34.78;24.18;99152.88;5121778;28;20047;-72
2022/08/17 11:56:46;;;;;;;3.45;3.08;;;;;;;34.83;24.00;99151.88;5124506;28;20221;-72
2022/08/17 11:59:37;;;;;;;7.85;3.30;;;;;;;34.75;24.89;99147.22;5106682;28;20043;-72
2022/08/17 12:02:33;;;;;;;4.00;2.65;;;;;;;34.57;24.21;99119.88;5127685;28;20035;-72
2022/08/17 12:05:11;;;;;;;4.32;3.17;;;;;;;34.86;24.05;99146.50;5122373;28;20224;-72
2022/08/17 12:07:42;;;;;;;4.10;2.97;;;;;;;34.77;24.17;99143.00;5123210;28;20035;-72
2022/08/17 12:10:11;;;;;;;6.20;3.20;;;;;;;34.93;25.11;99134.16;5127612;28;20037;-72
2022/08/17 12:12:42;;;;;;;6.82;2.92;;;;;;;34.92;25.34;99129.78;5124135;28;20376;-72
2022/08/17 12:15:16;;;;;;;6.38;3.17;;;;;;;34.83;23.60;99116.94;5121864;28;20261;-71
2022/08/17 12:17:51;;;;;;;7.07;3.05;;;;;;;35.06;24.31;99122.84;5122901;28;20032;-72
2022/08/17 12:20:26;;;;;;;4.05;2.90;;;;;;;34.96;24.87;99126.03;5123384;28;20039;-72
2022/08/17 12:23:06;;;;;;;10.90;3.25;;;;;;;35.01;24.00;99125.81;5123489;28;20019;-71
2022/08/17 12:25:39;;;;;;;4.88;2.70;;;;;;;35.03;23.34;99130.97;5104945;28;20351;-72
2022/08/17 12:28:20;;;;;;;4.65;3.10;;;;;;;34.77;24.37;99123.75;5125337;28;20046;-72
2022/08/17 12:30:50;;;;;;;7.95;3.08;;;;;;;34.85;23.58;99128.41;5122381;27;20046;-72
2022/08/17 12:33:23;;;;;;;4.57;3.08;;;;;;;34.63;23.91;99119.69;5129605;27;20058;-71